createdAt,value
2016-12-29T00:00:12.379Z,549.73
2016-12-29T00:01:12.277Z,546.32
2016-12-29T00:02:12.249Z,543.09
2016-12-29T00:03:12.481Z,540.7
2016-12-29T00:04:12.454Z,537.85
2016-12-29T00:05:12.605Z,535.6
2016-12-29T00:06:12.250Z,533.18
2016-12-29T00:07:12.253Z,531.3
2016-12-29T00:08:12.283Z,528.44
2016-12-29T00:09:12.253Z,527.25
2016-12-29T00:10:12.243Z,523.98
2016-12-29T00:11:12.264Z,521.95
2016-12-29T00:12:12.267Z,519.55
2016-12-29T00:13:12.259Z,516.83
2016-12-29T00:14:12.256Z,514.99
2016-12-29T00:15:12.249Z,511.88
2016-12-29T00:16:12.251Z,510.06
2016-12-29T00:17:12.246Z,507.4
2016-12-29T00:18:12.293Z,505.14
2016-12-29T00:19:12.247Z,502.39
2016-12-29T00:20:12.248Z,499.52
2016-12-29T00:21:12.257Z,497.09
2016-12-29T00:22:12.254Z,495.22
2016-12-29T00:23:12.288Z,492.97
2016-12-29T00:24:12.262Z,490.43
2016-12-29T00:25:12.252Z,488.77
2016-12-29T00:26:12.268Z,487.07
2016-12-29T00:27:12.265Z,485.22
2016-12-29T00:28:12.288Z,483.06
2016-12-29T00:29:12.264Z,480.83
2016-12-29T00:30:12.273Z,479.15
2016-12-29T00:31:12.272Z,476.85
2016-12-29T00:32:12.270Z,475.24
2016-12-29T00:33:13.753Z,472.44
2016-12-29T00:34:12.272Z,470.77
2016-12-29T00:35:12.262Z,468.52
2016-12-29T00:36:12.282Z,465.87
2016-12-29T00:37:12.278Z,463.97
2016-12-29T00:38:12.268Z,462.43
2016-12-29T00:39:12.305Z,459.21
2016-12-29T00:40:12.263Z,457.97
2016-12-29T00:41:12.268Z,456.06
2016-12-29T00:42:12.271Z,454.55
2016-12-29T00:43:12.262Z,452.7
2016-12-29T00:44:12.266Z,450.72
2016-12-29T00:45:12.260Z,449.89
2016-12-29T00:46:12.267Z,448.93
2016-12-29T00:47:12.269Z,446.55
2016-12-29T00:48:12.267Z,444.16
2016-12-29T00:49:12.299Z,442.72
2016-12-29T00:50:12.340Z,439.47
2016-12-29T00:51:12.325Z,437.34
2016-12-29T00:52:12.278Z,435.14
2016-12-29T00:53:12.279Z,432.82
2016-12-29T00:54:12.285Z,430.23
2016-12-29T00:55:12.302Z,427.42
2016-12-29T00:56:12.923Z,426.4
2016-12-29T00:57:12.294Z,422.67
2016-12-29T00:58:12.948Z,421.88
2016-12-29T00:59:12.271Z,419.13
2016-12-29T01:00:12.287Z,417.79
2016-12-29T01:01:12.285Z,415.42
2016-12-29T01:02:12.295Z,413.66
2016-12-29T01:03:12.280Z,411.92
2016-12-29T01:04:12.299Z,409.81
2016-12-29T01:05:12.283Z,408.67
2016-12-29T01:06:12.284Z,407.11
2016-12-29T01:07:12.277Z,404.94
2016-12-29T01:08:12.296Z,403.66
2016-12-29T01:09:12.287Z,402.79
2016-12-29T01:10:12.278Z,400.56
2016-12-29T01:11:12.285Z,399.25
2016-12-29T01:12:12.278Z,398.14
2016-12-29T01:13:12.300Z,396.97
2016-12-29T01:14:12.282Z,395.47
2016-12-29T01:15:12.284Z,394.35
2016-12-29T01:16:12.291Z,393.5
2016-12-29T01:17:12.295Z,391.49
2016-12-29T01:18:12.295Z,390.64
2016-12-29T01:19:12.281Z,387.93
2016-12-29T01:20:12.730Z,386.83
2016-12-29T01:21:12.299Z,385.32
2016-12-29T01:22:12.288Z,383.06
2016-12-29T01:23:12.295Z,382.43
2016-12-29T01:24:12.310Z,381.14
2016-12-29T01:25:12.347Z,379.6
2016-12-29T01:26:12.298Z,378.23
2016-12-29T01:27:12.302Z,376.2
2016-12-29T01:28:12.325Z,374.17
2016-12-29T01:29:12.309Z,372.41
2016-12-29T01:30:12.303Z,370.41
2016-12-29T01:31:12.310Z,369.99
2016-12-29T01:32:12.301Z,367.72
2016-12-29T01:33:12.407Z,366.4
2016-12-29T01:34:12.322Z,364.99
2016-12-29T01:35:12.295Z,364.31
2016-12-29T01:36:12.316Z,362.49
2016-12-29T01:37:12.322Z,361.34
2016-12-29T01:38:12.317Z,359.77
2016-12-29T01:39:12.320Z,357.67
2016-12-29T01:40:12.323Z,356.79
2016-12-29T01:41:12.371Z,355.63
2016-12-29T01:42:12.344Z,353.82
2016-12-29T01:43:12.330Z,352.98
2016-12-29T01:44:12.319Z,351.59
2016-12-29T01:45:12.325Z,350.25
2016-12-29T01:46:12.314Z,349.32
2016-12-29T01:47:12.318Z,349.58
2016-12-29T01:48:12.317Z,348.92
2016-12-29T01:49:12.309Z,347.98
2016-12-29T01:50:12.322Z,346.59
2016-12-29T01:51:12.304Z,346.67
2016-12-29T01:52:12.310Z,346.38
2016-12-29T01:53:12.325Z,345.52
2016-12-29T01:54:12.308Z,345.09
2016-12-29T01:55:12.312Z,344.68
2016-12-29T01:56:12.308Z,344.46
2016-12-29T01:57:12.315Z,342.82
2016-12-29T01:58:12.322Z,342.38
2016-12-29T01:59:12.336Z,342.11
2016-12-29T02:00:12.332Z,341.46
2016-12-29T02:01:12.329Z,341.66
2016-12-29T02:02:12.312Z,339.98
2016-12-29T02:03:12.317Z,339.08
2016-12-29T02:04:12.323Z,339.56
2016-12-29T02:05:12.316Z,339.07
2016-12-29T02:06:12.324Z,338.42
2016-12-29T02:07:12.325Z,337.94
2016-12-29T02:08:12.324Z,337.25
2016-12-29T02:09:12.314Z,335.59
2016-12-29T02:10:12.327Z,334.42
2016-12-29T02:11:12.328Z,333.99
2016-12-29T02:12:12.327Z,331.62
2016-12-29T02:13:12.331Z,331.39
2016-12-29T02:14:12.321Z,330.03
2016-12-29T02:15:12.327Z,328.63
2016-12-29T02:16:12.318Z,327.97
2016-12-29T02:17:12.334Z,326.58
2016-12-29T02:18:12.330Z,325.92
2016-12-29T02:19:12.324Z,324.29
2016-12-29T02:20:12.332Z,322.49
2016-12-29T02:21:12.324Z,321.59
2016-12-29T02:22:12.341Z,320.23
2016-12-29T02:23:12.331Z,319.83
2016-12-29T02:24:12.332Z,318.38
2016-12-29T02:25:12.335Z,317.71
2016-12-29T02:26:12.343Z,316.59
2016-12-29T02:27:12.326Z,315.67
2016-12-29T02:28:12.329Z,315.16
2016-12-29T02:29:12.326Z,313.51
2016-12-29T02:30:12.333Z,312.75
2016-12-29T02:31:12.339Z,312.4
2016-12-29T02:32:12.342Z,312.35
2016-12-29T02:33:12.340Z,310.66
2016-12-29T02:34:12.341Z,309.55
2016-12-29T02:35:12.337Z,308.17
2016-12-29T02:36:12.328Z,307.72
2016-12-29T02:37:12.336Z,306.6
2016-12-29T02:38:12.340Z,306.14
2016-12-29T02:39:12.334Z,304.94
2016-12-29T02:40:12.353Z,304.91
2016-12-29T02:41:12.337Z,303.27
2016-12-29T02:42:12.345Z,302.85
2016-12-29T02:43:12.336Z,302.13
2016-12-29T02:44:12.335Z,301
2016-12-29T02:45:12.342Z,299.33
2016-12-29T02:46:12.348Z,299.5
2016-12-29T02:47:12.340Z,298.14
2016-12-29T02:48:12.347Z,297.67
2016-12-29T02:49:12.346Z,296.19
2016-12-29T02:50:12.339Z,295.53
2016-12-29T02:51:12.353Z,295.08
2016-12-29T02:52:12.353Z,293.2
2016-12-29T02:53:12.409Z,292.26
2016-12-29T02:54:12.398Z,291.47
2016-12-29T02:55:12.370Z,291.45
2016-12-29T02:56:12.409Z,291.49
2016-12-29T02:57:12.341Z,290.8
2016-12-29T02:58:12.357Z,290.51
2016-12-29T02:59:12.356Z,289.41
2016-12-29T03:00:12.347Z,288.44
2016-12-29T03:01:12.354Z,288.22
2016-12-29T03:02:12.362Z,287.78
2016-12-29T03:03:12.365Z,287.85
2016-12-29T03:04:12.363Z,287.11
2016-12-29T03:05:12.356Z,287.79
2016-12-29T03:06:12.356Z,288.24
2016-12-29T03:07:12.349Z,289.63
2016-12-29T03:08:12.361Z,290.11
2016-12-29T03:09:12.363Z,290.75
2016-12-29T03:10:12.359Z,291.73
2016-12-29T03:11:12.366Z,291.93
2016-12-29T03:12:12.357Z,291.47
2016-12-29T03:13:12.364Z,291.47
2016-12-29T03:14:12.372Z,291
2016-12-29T03:15:12.379Z,291.27
2016-12-29T03:16:12.369Z,289.62
2016-12-29T03:17:12.360Z,288.92
2016-12-29T03:18:12.372Z,287.74
2016-12-29T03:19:12.369Z,286.55
2016-12-29T03:20:12.367Z,285.7
2016-12-29T03:21:12.361Z,284.71
2016-12-29T03:22:12.366Z,285.05
2016-12-29T03:23:12.364Z,283.62
2016-12-29T03:24:12.366Z,280.71
2016-12-29T03:25:12.360Z,279.81
2016-12-29T03:26:12.366Z,278.57
2016-12-29T03:27:12.377Z,276.2
2016-12-29T03:28:12.375Z,275.49
2016-12-29T03:29:12.368Z,274.11
2016-12-29T03:30:12.374Z,272.46
2016-12-29T03:31:12.367Z,271.74
2016-12-29T03:32:12.374Z,271.5
2016-12-29T03:33:12.366Z,269.58
2016-12-29T03:34:12.359Z,268.85
2016-12-29T03:35:12.379Z,268.88
2016-12-29T03:36:12.380Z,267.73
2016-12-29T03:37:12.380Z,266.75
2016-12-29T03:38:12.377Z,266.75
2016-12-29T03:39:12.373Z,266.07
2016-12-29T03:40:12.372Z,265.09
2016-12-29T03:41:12.374Z,264.89
2016-12-29T03:42:12.384Z,264.62
2016-12-29T03:43:12.376Z,264.93
2016-12-29T03:44:12.373Z,264.69
2016-12-29T03:45:12.375Z,265.38
2016-12-29T03:46:12.391Z,264.69
2016-12-29T03:47:12.384Z,264.96
2016-12-29T03:48:12.387Z,264.42
2016-12-29T03:49:12.386Z,264.66
2016-12-29T03:50:12.393Z,263.7
2016-12-29T03:51:12.395Z,262.49
2016-12-29T03:52:12.385Z,263.52
2016-12-29T03:53:12.377Z,262.32
2016-12-29T03:54:12.385Z,262.07
2016-12-29T03:55:12.389Z,259.91
2016-12-29T03:56:12.381Z,260.92
2016-12-29T03:57:12.417Z,259.65
2016-12-29T03:58:12.379Z,259.65
2016-12-29T03:59:12.393Z,259.83
2016-12-29T04:00:12.397Z,259.39
2016-12-29T04:01:12.430Z,259.15
2016-12-29T04:02:12.398Z,258.13
2016-12-29T04:03:12.386Z,258.45
2016-12-29T04:04:12.393Z,258.23
2016-12-29T04:05:12.391Z,257.73
2016-12-29T04:06:12.384Z,257.42
2016-12-29T04:07:12.391Z,257.43
2016-12-29T04:08:12.389Z,257.56
2016-12-29T04:09:12.397Z,256.83
2016-12-29T04:10:12.394Z,257.07
2016-12-29T04:11:12.398Z,257.25
2016-12-29T04:12:12.393Z,256.77
2016-12-29T04:13:12.398Z,257.47
2016-12-29T04:14:12.390Z,257.69
2016-12-29T04:15:12.396Z,257.96
2016-12-29T04:16:12.395Z,258.75
2016-12-29T04:17:12.408Z,257.98
2016-12-29T04:18:12.394Z,257.54
2016-12-29T04:19:12.400Z,258.06
2016-12-29T04:20:12.396Z,256.64
2016-12-29T04:21:12.405Z,257.85
2016-12-29T04:22:12.395Z,257.46
2016-12-29T04:23:12.402Z,257.42
2016-12-29T04:24:12.407Z,257.25
2016-12-29T04:25:12.401Z,256.74
2016-12-29T04:26:12.407Z,257.63
2016-12-29T04:27:12.400Z,256.96
2016-12-29T04:28:12.411Z,256.7
2016-12-29T04:29:12.426Z,255.72
2016-12-29T04:30:12.406Z,256.07
2016-12-29T04:31:12.397Z,255.58
2016-12-29T04:32:12.414Z,254.89
2016-12-29T04:33:12.412Z,254.94
2016-12-29T04:34:12.405Z,254.24
2016-12-29T04:35:12.422Z,254.76
2016-12-29T04:36:12.403Z,253.31
2016-12-29T04:37:12.409Z,252.77
2016-12-29T04:38:12.412Z,253.2
2016-12-29T04:39:12.419Z,252.53
2016-12-29T04:40:12.413Z,252.74
2016-12-29T04:41:12.408Z,251.71
2016-12-29T04:42:12.418Z,250.52
2016-12-29T04:43:12.419Z,250.79
2016-12-29T04:44:12.424Z,249.25
2016-12-29T04:45:12.408Z,248.06
2016-12-29T04:46:12.438Z,249.35
2016-12-29T04:47:12.407Z,248.07
2016-12-29T04:48:12.414Z,248.65
2016-12-29T04:49:12.417Z,247.88
2016-12-29T04:50:12.422Z,246.71
2016-12-29T04:51:12.414Z,246.5
2016-12-29T04:52:12.422Z,246.18
2016-12-29T04:53:12.423Z,245.04
2016-12-29T04:54:12.429Z,244.83
2016-12-29T04:55:12.419Z,244.37
2016-12-29T04:56:12.426Z,242.97
2016-12-29T04:57:12.417Z,241.71
2016-12-29T04:58:12.424Z,241.06
2016-12-29T04:59:12.421Z,239.59
2016-12-29T05:00:12.423Z,239.42
2016-12-29T05:01:12.429Z,237.71
2016-12-29T05:02:12.422Z,236.35
2016-12-29T05:03:12.418Z,236.81
2016-12-29T05:04:12.422Z,235.33
2016-12-29T05:05:12.430Z,233.27
2016-12-29T05:06:12.423Z,231.39
2016-12-29T05:07:12.428Z,231.02
2016-12-29T05:08:12.432Z,230.57
2016-12-29T05:09:12.427Z,229.4
2016-12-29T05:10:12.435Z,228.18
2016-12-29T05:11:12.427Z,227.44
2016-12-29T05:12:12.433Z,227.47
2016-12-29T05:13:12.456Z,227.44
2016-12-29T05:14:12.442Z,227.13
2016-12-29T05:15:12.438Z,227.63
2016-12-29T05:16:12.440Z,226.22
2016-12-29T05:17:12.446Z,225.65
2016-12-29T05:18:12.438Z,225.9
2016-12-29T05:19:12.488Z,225.42
2016-12-29T05:20:12.443Z,224.65
2016-12-29T05:21:12.453Z,223.9
2016-12-29T05:22:12.467Z,224.37
2016-12-29T05:23:12.444Z,223.88
2016-12-29T05:24:12.450Z,223.4
2016-12-29T05:25:12.457Z,222.19
2016-12-29T05:26:12.469Z,222.77
2016-12-29T05:27:12.446Z,221.79
2016-12-29T05:28:12.454Z,221.11
2016-12-29T05:29:12.445Z,220.64
2016-12-29T05:30:12.467Z,219.73
2016-12-29T05:31:12.500Z,219.45
2016-12-29T05:32:12.455Z,218.93
2016-12-29T05:33:12.430Z,218.46
2016-12-29T05:34:12.438Z,217.96
2016-12-29T05:35:12.459Z,218.14
2016-12-29T05:36:12.449Z,217.86
2016-12-29T05:37:12.456Z,218.43
2016-12-29T05:38:12.434Z,217.42
2016-12-29T05:39:12.443Z,217.64
2016-12-29T05:40:12.458Z,218.18
2016-12-29T05:41:12.438Z,218.51
2016-12-29T05:42:12.448Z,216.52
2016-12-29T05:43:12.443Z,216.47
2016-12-29T05:44:12.454Z,216.72
2016-12-29T05:45:12.451Z,216.18
2016-12-29T05:46:12.454Z,216.91
2016-12-29T05:47:12.457Z,216.9
2016-12-29T05:48:12.448Z,216.43
2016-12-29T05:49:12.455Z,215.52
2016-12-29T05:50:12.446Z,214.04
2016-12-29T05:51:12.452Z,213.04
2016-12-29T05:52:12.453Z,213.52
2016-12-29T05:53:12.453Z,211.82
2016-12-29T05:54:12.449Z,210.36
2016-12-29T05:55:12.446Z,209.14
2016-12-29T05:56:12.452Z,208.41
2016-12-29T05:57:12.464Z,206.94
2016-12-29T05:58:12.452Z,206.51
2016-12-29T05:59:12.457Z,205.53
2016-12-29T06:00:12.467Z,205.29
2016-12-29T06:01:12.457Z,205.3
2016-12-29T06:02:12.469Z,204.32
2016-12-29T06:03:12.456Z,205
2016-12-29T06:04:12.452Z,204.49
2016-12-29T06:05:12.468Z,204.81
2016-12-29T06:06:12.463Z,204.15
2016-12-29T06:07:12.454Z,203.89
2016-12-29T06:08:12.473Z,203.44
2016-12-29T06:09:12.457Z,202.97
2016-12-29T06:10:12.459Z,202.72
2016-12-29T06:11:12.496Z,203.01
2016-12-29T06:12:12.480Z,203.98
2016-12-29T06:13:12.467Z,203.72
2016-12-29T06:14:12.467Z,203.97
2016-12-29T06:15:12.463Z,203.98
2016-12-29T06:16:12.465Z,203.28
2016-12-29T06:17:12.467Z,205.06
2016-12-29T06:18:12.483Z,204.53
2016-12-29T06:19:12.477Z,205.07
2016-12-29T06:20:12.468Z,205.04
2016-12-29T06:21:12.467Z,204.6
2016-12-29T06:22:12.471Z,205.04
2016-12-29T06:23:12.489Z,204.28
2016-12-29T06:24:12.470Z,204.26
2016-12-29T06:25:12.481Z,204.45
2016-12-29T06:26:12.465Z,204.22
2016-12-29T06:27:12.467Z,203.99
2016-12-29T06:28:12.473Z,203
2016-12-29T06:29:12.478Z,204.43
2016-12-29T06:30:12.470Z,203.93
2016-12-29T06:31:12.478Z,203.45
2016-12-29T06:32:12.486Z,203.69
2016-12-29T06:33:12.481Z,203.19
2016-12-29T06:34:12.473Z,203.2
2016-12-29T06:35:12.481Z,204.2
2016-12-29T06:36:12.482Z,203.19
2016-12-29T06:37:12.479Z,204.34
2016-12-29T06:38:12.497Z,203.84
2016-12-29T06:39:12.475Z,204.13
2016-12-29T06:40:12.482Z,204.34
2016-12-29T06:41:12.488Z,203.38
2016-12-29T06:42:12.485Z,203.1
2016-12-29T06:43:12.485Z,204.61
2016-12-29T06:44:12.510Z,204.39
2016-12-29T06:45:12.489Z,204.65
2016-12-29T06:46:12.497Z,204.65
2016-12-29T06:47:12.508Z,204.73
2016-12-29T06:48:12.489Z,204.7
2016-12-29T06:49:12.486Z,205.16
2016-12-29T06:50:12.494Z,204.92
2016-12-29T06:51:12.499Z,205.1
2016-12-29T06:52:12.502Z,204.63
2016-12-29T06:53:12.491Z,204.59
2016-12-29T06:54:12.482Z,205.32
2016-12-29T06:55:12.498Z,205.33
2016-12-29T06:56:12.497Z,205.31
2016-12-29T06:57:12.493Z,206.27
2016-12-29T06:58:12.501Z,205.78
2016-12-29T06:59:12.497Z,205.79
2016-12-29T07:00:12.499Z,205.26
2016-12-29T07:01:12.485Z,204.99
2016-12-29T07:02:12.493Z,204.54
2016-12-29T07:03:12.500Z,204.73
2016-12-29T07:04:12.492Z,204.46
2016-12-29T07:05:12.498Z,203.49
2016-12-29T07:06:12.492Z,202.48
2016-12-29T07:07:12.492Z,202.06
2016-12-29T07:08:12.485Z,200.58
2016-12-29T07:09:12.497Z,200.65
2016-12-29T07:10:12.499Z,200.71
2016-12-29T07:11:12.504Z,198.04
2016-12-29T07:12:12.503Z,198.54
2016-12-29T07:13:12.497Z,196.32
2016-12-29T07:14:12.506Z,195.8
2016-12-29T07:15:12.507Z,195.83
2016-12-29T07:16:12.489Z,195.78
2016-12-29T07:17:12.539Z,194.98
2016-12-29T07:18:12.506Z,194.73
2016-12-29T07:19:12.494Z,194.31
2016-12-29T07:20:12.501Z,194.54
2016-12-29T07:21:12.499Z,193.56
2016-12-29T07:22:12.531Z,192.58
2016-12-29T07:23:12.516Z,192.64
2016-12-29T07:24:12.500Z,192.1
2016-12-29T07:25:12.506Z,192.46
2016-12-29T07:26:12.541Z,190.96
2016-12-29T07:27:12.565Z,191.27
2016-12-29T07:28:12.511Z,190.48
2016-12-29T07:29:12.507Z,189.98
2016-12-29T07:30:12.523Z,189.48
2016-12-29T07:31:12.516Z,188.46
2016-12-29T07:32:12.548Z,188.4
2016-12-29T07:33:12.504Z,187.66
2016-12-29T07:34:12.524Z,187.14
2016-12-29T07:35:12.510Z,187.6
2016-12-29T07:36:12.523Z,187.06
2016-12-29T07:37:12.623Z,186.15
2016-12-29T07:38:12.528Z,187.1
2016-12-29T07:39:12.534Z,187.09
2016-12-29T07:40:12.520Z,187.37
2016-12-29T07:41:12.529Z,186.62
2016-12-29T07:42:12.557Z,186.37
2016-12-29T07:43:12.542Z,185.58
2016-12-29T07:44:12.539Z,185.91
2016-12-29T07:45:12.522Z,185.23
2016-12-29T07:46:12.510Z,186.43
2016-12-29T07:47:12.562Z,186.4
2016-12-29T07:48:12.529Z,186.43
2016-12-29T07:49:12.536Z,186.45
2016-12-29T07:50:12.537Z,186.4
2016-12-29T07:51:12.543Z,187.65
2016-12-29T07:52:12.579Z,187.62
2016-12-29T07:53:12.534Z,189.12
2016-12-29T07:54:12.531Z,188.82
2016-12-29T07:55:12.524Z,189.82
2016-12-29T07:56:12.519Z,189.36
2016-12-29T07:57:12.582Z,190.81
2016-12-29T07:58:12.531Z,191.33
2016-12-29T07:59:12.523Z,192.02
2016-12-29T08:00:12.516Z,193.29
2016-12-29T08:01:12.535Z,193.49
2016-12-29T08:02:12.566Z,194.46
2016-12-29T08:03:12.521Z,195.1
2016-12-29T08:04:12.528Z,196.01
2016-12-29T08:05:12.521Z,196.22
2016-12-29T08:06:12.529Z,197.95
2016-12-29T08:07:12.574Z,199.22
2016-12-29T08:08:12.542Z,199.38
2016-12-29T08:09:12.532Z,202.1
2016-12-29T08:10:12.526Z,202.87
2016-12-29T08:11:12.532Z,204.97
2016-12-29T08:12:12.573Z,206.72
2016-12-29T08:13:12.529Z,206.73
2016-12-29T08:14:12.552Z,209.13
2016-12-29T08:15:12.542Z,211.32
2016-12-29T08:16:12.537Z,212.32
2016-12-29T08:17:12.558Z,213.8
2016-12-29T08:18:12.548Z,215.76
2016-12-29T08:19:12.554Z,216.53
2016-12-29T08:20:12.562Z,217.98
2016-12-29T08:21:12.568Z,220.4
2016-12-29T08:22:12.544Z,222.08
2016-12-29T08:23:12.533Z,222.74
2016-12-29T08:24:12.537Z,223.66
2016-12-29T08:25:12.545Z,224.83
2016-12-29T08:26:12.544Z,226.23
2016-12-29T08:27:12.558Z,229.35
2016-12-29T08:28:12.543Z,231.02
2016-12-29T08:29:12.558Z,231.72
2016-12-29T08:30:12.543Z,233.91
2016-12-29T08:31:12.538Z,236.52
2016-12-29T08:32:12.548Z,238.64
2016-12-29T08:33:12.536Z,239.8
2016-12-29T08:34:12.545Z,242.84
2016-12-29T08:35:12.550Z,245.03
2016-12-29T08:36:12.539Z,246.85
2016-12-29T08:37:12.535Z,249.47
2016-12-29T08:38:12.542Z,250.39
2016-12-29T08:39:12.546Z,253.24
2016-12-29T08:40:12.556Z,255.84
2016-12-29T08:41:12.546Z,256.99
2016-12-29T08:42:12.560Z,259.61
2016-12-29T08:43:12.544Z,261.92
2016-12-29T08:44:12.554Z,263.56
2016-12-29T08:45:12.558Z,264.94
2016-12-29T08:46:12.551Z,267.53
2016-12-29T08:47:12.545Z,269.41
2016-12-29T08:48:12.553Z,270.88
2016-12-29T08:49:12.556Z,274.18
2016-12-29T08:50:12.565Z,276.78
2016-12-29T08:51:12.557Z,277.91
2016-12-29T08:52:12.550Z,281.47
2016-12-29T08:53:12.558Z,283.78
2016-12-29T08:54:12.550Z,286.08
2016-12-29T08:55:12.577Z,288.39
2016-12-29T08:56:12.550Z,290.68
2016-12-29T08:57:12.567Z,293.13
2016-12-29T08:58:12.560Z,295.93
2016-12-29T08:59:12.553Z,298.48
2016-12-29T09:00:12.558Z,301.7
2016-12-29T09:01:12.564Z,304.19
2016-12-29T09:02:12.557Z,306.73
2016-12-29T09:03:12.569Z,310.72
2016-12-29T09:04:12.560Z,314.19
2016-12-29T09:05:12.560Z,316.93
2016-12-29T09:06:12.559Z,319.92
2016-12-29T09:07:12.560Z,322.1
2016-12-29T09:08:12.569Z,326.05
2016-12-29T09:09:12.565Z,328.75
2016-12-29T09:10:12.563Z,331.27
2016-12-29T09:11:12.555Z,334.48
2016-12-29T09:12:12.562Z,337.4
2016-12-29T09:13:12.569Z,339.95
2016-12-29T09:14:12.575Z,342.38
2016-12-29T09:15:12.578Z,344.39
2016-12-29T09:16:12.584Z,347.58
2016-12-29T09:17:12.570Z,349.75
2016-12-29T09:18:12.581Z,353.59
2016-12-29T09:19:12.565Z,355.83
2016-12-29T09:20:12.572Z,358.53
2016-12-29T09:21:12.579Z,361.2
2016-12-29T09:22:12.593Z,362.99
2016-12-29T09:23:12.581Z,366.57
2016-12-29T09:24:12.579Z,369.03
2016-12-29T09:25:12.592Z,372.14
2016-12-29T09:26:12.582Z,374.57
2016-12-29T09:27:12.573Z,377.16
2016-12-29T09:28:12.581Z,380.07
2016-12-29T09:29:12.597Z,381.81
2016-12-29T09:30:12.581Z,384.7
2016-12-29T09:31:12.577Z,388.5
2016-12-29T09:32:12.594Z,391.38
2016-12-29T09:33:12.574Z,393.5
2016-12-29T09:34:12.582Z,395.23
2016-12-29T09:35:12.588Z,398.35
2016-12-29T09:36:12.579Z,401.23
2016-12-29T09:37:12.575Z,405.44
2016-12-29T09:38:12.579Z,410.02
2016-12-29T09:39:12.587Z,413.31
2016-12-29T09:40:12.580Z,417.64
2016-12-29T09:41:12.586Z,422.14
2016-12-29T09:42:12.583Z,426.42
2016-12-29T09:43:12.584Z,430.29
2016-12-29T09:44:12.576Z,433.44
2016-12-29T09:45:12.603Z,437.34
2016-12-29T09:46:12.595Z,440.31
2016-12-29T09:47:12.591Z,443.75
2016-12-29T09:48:12.592Z,446.55
2016-12-29T09:49:12.594Z,450.4
2016-12-29T09:50:12.593Z,452.7
2016-12-29T09:51:12.587Z,455.22
2016-12-29T09:52:12.588Z,457.96
2016-12-29T09:53:12.595Z,460.71
2016-12-29T09:54:12.601Z,463.62
2016-12-29T09:55:12.682Z,466.41
2016-12-29T09:56:12.643Z,469.28
2016-12-29T09:57:12.637Z,472.43
2016-12-29T09:58:12.589Z,474.29
2016-12-29T09:59:12.594Z,476.35
2016-12-29T10:00:12.596Z,479.74
2016-12-29T10:01:12.588Z,482.4
2016-12-29T10:02:12.599Z,484.05
2016-12-29T10:03:12.594Z,486.95
2016-12-29T10:04:12.600Z,490.2
2016-12-29T10:05:12.600Z,492.77
2016-12-29T10:06:12.596Z,495.61
2016-12-29T10:07:12.602Z,498.72
2016-12-29T10:08:12.608Z,501.21
2016-12-29T10:09:12.602Z,503.03
2016-12-29T10:10:12.608Z,505.91
2016-12-29T10:11:12.603Z,507.92
2016-12-29T10:12:12.626Z,511.77
2016-12-29T10:13:12.602Z,513.76
2016-12-29T10:14:12.618Z,517.03
2016-12-29T10:15:12.596Z,519.05
2016-12-29T10:16:12.598Z,521.69
2016-12-29T10:17:12.604Z,524.98
2016-12-29T10:18:12.611Z,527.45
2016-12-29T10:19:12.603Z,529.45
2016-12-29T10:20:12.609Z,531.89
2016-12-29T10:21:12.602Z,533.48
2016-12-29T10:22:12.606Z,535.69
2016-12-29T10:23:12.601Z,538.29
2016-12-29T10:24:12.614Z,540.51
2016-12-29T10:25:12.613Z,543.07
2016-12-29T10:26:12.622Z,544.38
2016-12-29T10:27:12.613Z,546.43
2016-12-29T10:28:12.608Z,549.05
2016-12-29T10:29:12.614Z,551.4
2016-12-29T10:30:12.617Z,553.99
2016-12-29T10:31:12.619Z,556.13
2016-12-29T10:32:12.611Z,557.92
2016-12-29T10:33:12.618Z,561.26
2016-12-29T10:34:12.625Z,562.21
2016-12-29T10:35:12.618Z,565.01
2016-12-29T10:36:12.623Z,567.5
2016-12-29T10:37:12.627Z,570.46
2016-12-29T10:38:12.617Z,572.83
2016-12-29T10:39:12.627Z,574.41
2016-12-29T10:40:12.639Z,576.61
2016-12-29T10:41:12.634Z,578.67
2016-12-29T10:42:12.619Z,580.82
2016-12-29T10:43:12.625Z,581.92
2016-12-29T10:44:12.640Z,584.24
2016-12-29T10:45:12.637Z,586.18
2016-12-29T10:46:12.637Z,588.3
2016-12-29T10:47:12.629Z,589.84
2016-12-29T10:48:12.624Z,591.9
2016-12-29T10:49:12.670Z,594.25
2016-12-29T10:50:12.663Z,596.16
2016-12-29T10:51:12.653Z,597.48
2016-12-29T10:52:12.649Z,599.64
2016-12-29T10:53:12.664Z,601.34
2016-12-29T10:54:12.646Z,602.84
2016-12-29T10:55:12.636Z,603.94
2016-12-29T10:56:12.629Z,605.22
2016-12-29T10:57:12.641Z,607.89
2016-12-29T10:58:12.641Z,608.66
2016-12-29T10:59:12.633Z,610.41
2016-12-29T11:00:12.629Z,612.47
2016-12-29T11:01:12.652Z,614.59
2016-12-29T11:02:12.643Z,616.08
2016-12-29T11:03:12.632Z,618.18
2016-12-29T11:04:12.634Z,619.68
2016-12-29T11:05:12.644Z,621.58
2016-12-29T11:06:12.646Z,623.88
2016-12-29T11:07:12.669Z,624.99
2016-12-29T11:08:12.644Z,627.27
2016-12-29T11:09:12.636Z,628.35
2016-12-29T11:10:12.643Z,630.41
2016-12-29T11:11:12.636Z,631.93
2016-12-29T11:12:12.644Z,632.85
2016-12-29T11:13:12.649Z,634.53
2016-12-29T11:14:12.647Z,636.21
2016-12-29T11:15:12.636Z,637.85
2016-12-29T11:16:12.669Z,640.12
2016-12-29T11:17:12.642Z,642.61
2016-12-29T11:18:12.649Z,644.04
2016-12-29T11:19:12.654Z,646.28
2016-12-29T11:20:12.672Z,648.89
2016-12-29T11:21:12.665Z,649.57
2016-12-29T11:22:12.663Z,651.4
2016-12-29T11:23:12.656Z,653.43
2016-12-29T11:24:12.655Z,655.3
2016-12-29T11:25:12.654Z,656.56
2016-12-29T11:26:12.669Z,658.91
2016-12-29T11:27:12.684Z,660.65
2016-12-29T11:28:12.653Z,662.48
2016-12-29T11:29:12.870Z,665.17
2016-12-29T11:30:12.654Z,666.38
2016-12-29T11:31:12.659Z,668.57
2016-12-29T11:32:12.657Z,670.23
2016-12-29T11:33:12.657Z,672.03
2016-12-29T11:34:12.668Z,674.03
2016-12-29T11:35:12.661Z,675.01
2016-12-29T11:36:12.662Z,675.87
2016-12-29T11:37:12.692Z,677.48
2016-12-29T11:38:12.678Z,679.31
2016-12-29T11:39:12.669Z,680.74
2016-12-29T11:40:12.661Z,681.58
2016-12-29T11:41:12.689Z,683.57
2016-12-29T11:42:12.665Z,685.51
2016-12-29T11:43:12.673Z,685.82
2016-12-29T11:44:12.664Z,687.2
2016-12-29T11:45:12.666Z,688.81
2016-12-29T11:46:12.692Z,689.9
2016-12-29T11:47:12.679Z,691.28
2016-12-29T11:48:12.674Z,691.96
2016-12-29T11:49:12.666Z,693.95
2016-12-29T11:50:12.688Z,695.32
2016-12-29T11:51:12.664Z,696.27
2016-12-29T11:52:12.689Z,696.96
2016-12-29T11:53:12.683Z,698.34
2016-12-29T11:54:12.674Z,700.12
2016-12-29T11:55:12.686Z,701.42
2016-12-29T11:56:12.673Z,702.48
2016-12-29T11:57:12.681Z,704.01
2016-12-29T11:58:12.685Z,706.12
2016-12-29T11:59:12.677Z,706.94
2016-12-29T12:00:12.668Z,708.34
2016-12-29T12:01:12.675Z,709.28
2016-12-29T12:02:12.682Z,710.86
2016-12-29T12:03:12.673Z,712.8
2016-12-29T12:04:12.685Z,713.66
2016-12-29T12:05:12.701Z,713.91
2016-12-29T12:06:12.693Z,714.97
2016-12-29T12:07:12.690Z,716.15
2016-12-29T12:08:12.681Z,716.98
2016-12-29T12:09:12.678Z,718.34
2016-12-29T12:10:12.680Z,718.68
2016-12-29T12:11:12.672Z,719.39
2016-12-29T12:12:12.678Z,720.05
2016-12-29T12:13:12.697Z,721.62
2016-12-29T12:14:12.678Z,722.61
2016-12-29T12:15:12.686Z,722.9
2016-12-29T12:16:12.691Z,724.63
2016-12-29T12:17:12.681Z,725.28
2016-12-29T12:18:12.688Z,726.44
2016-12-29T12:19:12.682Z,727.28
2016-12-29T12:20:12.689Z,728.11
2016-12-29T12:21:12.682Z,728.59
2016-12-29T12:22:12.689Z,730.11
2016-12-29T12:23:12.690Z,731.52
2016-12-29T12:24:12.696Z,731.99
2016-12-29T12:25:12.709Z,733
2016-12-29T12:26:12.697Z,733.8
2016-12-29T12:27:12.693Z,735.18
2016-12-29T12:28:12.704Z,735.13
2016-12-29T12:29:12.696Z,736.47
2016-12-29T12:30:12.693Z,737.23
2016-12-29T12:31:12.710Z,738.24